createdAt,value
2019-05-07T00:02:33.112Z,99.90
2019-05-07T00:07:27.708Z,99.90
2019-05-07T00:12:23.068Z,99.90
2019-05-07T00:17:17.768Z,99.90
2019-05-07T00:22:12.669Z,99.90
2019-05-07T00:27:07.426Z,99.90
2019-05-07T00:32:02.909Z,99.90
2019-05-07T00:37:02.267Z,99.90
2019-05-07T00:41:56.628Z,99.90
2019-05-07T00:46:52.534Z,99.90
2019-05-07T00:51:47.365Z,99.90
2019-05-07T00:56:42.851Z,99.90
2019-05-07T01:01:38.249Z,99.90
2019-05-07T01:06:33.237Z,99.90
2019-05-07T01:11:27.961Z,99.90
2019-05-07T01:16:22.624Z,99.90
2019-05-07T01:21:17.265Z,99.90
2019-05-07T01:26:12.427Z,99.90
2019-05-07T01:31:07.120Z,99.90
2019-05-07T01:36:05.740Z,99.90
2019-05-07T01:41:02.704Z,99.90
2019-05-07T01:45:56.634Z,99.90
2019-05-07T01:50:52.544Z,99.90
2019-05-07T01:55:47.744Z,99.90
2019-05-07T02:00:42.664Z,99.90
2019-05-07T02:05:42.403Z,99.90
2019-05-07T02:10:42.825Z,99.90
2019-05-07T02:15:37.658Z,99.90
2019-05-07T02:20:32.388Z,99.90
2019-05-07T02:25:27.183Z,99.90
2019-05-07T02:30:23.680Z,99.90
2019-05-07T02:35:18.988Z,99.90
2019-05-07T02:40:22.916Z,99.90
2019-05-07T02:45:19.798Z,99.90
2019-05-07T02:50:16.306Z,99.90
2019-05-07T02:55:15.550Z,99.90
2019-05-07T03:00:14.065Z,99.90
2019-05-07T03:05:07.029Z,99.90
2019-05-07T03:10:03.446Z,99.90
2019-05-07T03:14:58.069Z,99.90
2019-05-07T03:19:54.392Z,99.90
2019-05-07T03:24:52.986Z,99.90
2019-05-07T03:29:48.664Z,99.90
2019-05-07T03:34:58.103Z,99.90
2019-05-07T03:39:53.811Z,99.90
2019-05-07T03:44:59.088Z,99.90
2019-05-07T03:49:54.539Z,99.90
2019-05-07T03:54:49.133Z,99.90
2019-05-07T03:59:43.733Z,99.90
2019-05-07T04:04:38.303Z,99.90
2019-05-07T04:09:33.523Z,99.90
2019-05-07T04:14:28.449Z,99.90
2019-05-07T04:19:23.683Z,99.90
2019-05-07T04:24:23.499Z,99.90
2019-05-07T04:29:19.086Z,99.90
2019-05-07T04:34:15.327Z,99.90
2019-05-07T04:39:12.954Z,99.90
2019-05-07T04:44:06.339Z,99.90
2019-05-07T04:49:03.274Z,99.90
2019-05-07T04:53:57.243Z,99.90
2019-05-07T04:58:53.099Z,99.90
2019-05-07T05:03:47.982Z,99.90
2019-05-07T05:08:43.455Z,99.90
2019-05-07T05:13:38.462Z,99.90
2019-05-07T05:18:33.133Z,99.90
2019-05-07T05:23:32.951Z,99.90
2019-05-07T05:28:27.564Z,99.90
2019-05-07T05:33:23.462Z,99.90
2019-05-07T05:38:18.351Z,99.90
2019-05-07T05:43:22.403Z,99.90
2019-05-07T05:48:16.848Z,99.90
2019-05-07T05:53:12.210Z,99.90
2019-05-07T05:58:14.394Z,99.90
2019-05-07T06:03:13.148Z,99.90
2019-05-07T06:08:09.834Z,99.90
2019-05-07T06:13:16.745Z,99.90
2019-05-07T06:18:29.091Z,99.90
2019-05-07T06:23:26.377Z,99.90
2019-05-07T06:28:22.363Z,99.90
2019-05-07T06:33:17.168Z,99.90
2019-05-07T06:38:13.069Z,99.90
2019-05-07T06:43:12.484Z,99.90
2019-05-07T06:48:08.259Z,99.90
2019-05-07T06:53:02.936Z,99.90
2019-05-07T06:57:57.491Z,99.90
2019-05-07T07:03:12.685Z,99.90
2019-05-07T07:08:23.032Z,99.90
2019-05-07T07:13:18.564Z,99.90
2019-05-07T07:18:14.308Z,99.90
2019-05-07T07:23:09.061Z,99.90
2019-05-07T07:28:03.699Z,99.90
2019-05-07T07:32:59.939Z,99.90
2019-05-07T07:37:56.778Z,99.90
2019-05-07T07:42:52.045Z,99.90
2019-05-07T07:47:47.930Z,99.90
2019-05-07T07:52:43.186Z,99.90
2019-05-07T07:57:48.125Z,99.90
2019-05-07T08:02:44.654Z,99.90
2019-05-07T08:07:39.398Z,99.90
2019-05-07T08:12:34.125Z,99.90
2019-05-07T08:17:28.818Z,99.90
2019-05-07T08:22:24.229Z,99.90
2019-05-07T08:27:22.224Z,99.90
2019-05-07T08:32:19.597Z,99.90
2019-05-07T08:37:18.722Z,99.90
2019-05-07T08:42:13.585Z,99.90
2019-05-07T08:47:24.813Z,99.90
2019-05-07T08:52:19.380Z,99.90
2019-05-07T08:57:14.949Z,99.90
2019-05-07T09:02:09.642Z,99.90
2019-05-07T09:07:04.340Z,99.90
2019-05-07T09:12:04.737Z,99.90
2019-05-07T09:17:02.182Z,99.90
2019-05-07T09:22:12.740Z,98.60
2019-05-07T09:27:17.656Z,99.30
2019-05-07T09:32:32.500Z,98.00
2019-05-07T09:37:42.017Z,96.20
2019-05-07T09:42:46.997Z,93.50
2019-05-07T09:47:42.939Z,92.90
2019-05-07T09:52:38.418Z,91.10
2019-05-07T09:57:34.712Z,90.70
2019-05-07T10:02:31.945Z,90.30
2019-05-07T10:07:26.595Z,90.70
2019-05-07T10:12:23.560Z,90.80
2019-05-07T10:17:22.709Z,89.00
2019-05-07T10:22:17.779Z,87.10
2019-05-07T10:27:14.093Z,85.60
2019-05-07T10:32:08.831Z,84.30
2019-05-07T10:37:03.502Z,83.00
2019-05-07T10:41:58.077Z,79.50
2019-05-07T10:47:12.111Z,81.50
2019-05-07T10:52:08.355Z,80.50
2019-05-07T10:57:02.962Z,74.60
2019-05-07T11:01:59.333Z,71.40
2019-05-07T11:06:53.891Z,67.60
2019-05-07T11:11:48.490Z,69.00
2019-05-07T11:16:45.275Z,67.10
2019-05-07T11:21:41.774Z,66.80
2019-05-07T11:26:36.858Z,69.90
2019-05-07T11:31:36.175Z,70.20
2019-05-07T11:36:37.970Z,67.60
2019-05-07T11:41:37.511Z,68.50
2019-05-07T11:46:34.244Z,58.20
2019-05-07T11:51:47.065Z,57.70
2019-05-07T11:56:44.746Z,57.00
2019-05-07T12:01:47.019Z,55.50
2019-05-07T12:06:39.326Z,52.50
2019-05-07T12:11:38.306Z,55.20
2019-05-07T12:16:33.128Z,56.50
2019-05-07T12:21:27.837Z,56.00
2019-05-07T12:26:22.507Z,53.10
2019-05-07T12:31:17.457Z,54.80
2019-05-07T12:36:13.905Z,52.70
2019-05-07T12:41:26.671Z,56.30
2019-05-07T12:46:22.363Z,54.10
2019-05-07T12:51:30.540Z,55.50
2019-05-07T12:56:14.410Z,54.20
2019-05-07T13:01:11.980Z,52.30
2019-05-07T13:06:06.791Z,53.10
2019-05-07T13:11:03.062Z,54.20
2019-05-07T13:15:58.733Z,52.60
2019-05-07T13:20:53.446Z,52.10
2019-05-07T13:25:48.260Z,52.60
2019-05-07T13:30:43.889Z,53.50
2019-05-07T13:35:39.735Z,54.20
2019-05-07T13:40:37.370Z,52.90
2019-05-07T13:45:35.708Z,52.50
2019-05-07T13:50:32.521Z,52.10
2019-05-07T13:55:28.426Z,53.00
2019-05-07T14:00:25.299Z,54.30
2019-05-07T14:05:21.737Z,56.10
2019-05-07T14:10:17.740Z,55.00
2019-05-07T14:15:12.833Z,54.90
2019-05-07T14:20:07.864Z,57.40
2019-05-07T14:25:02.538Z,57.70
2019-05-07T14:29:58.876Z,58.40
2019-05-07T14:35:04.224Z,58.00
2019-05-07T14:40:02.557Z,58.70
2019-05-07T14:44:56.952Z,58.90
2019-05-07T14:49:52.975Z,59.70
2019-05-07T14:54:48.756Z,59.50
2019-05-07T14:59:46.335Z,59.50
2019-05-07T15:04:41.945Z,59.20
2019-05-07T15:09:36.743Z,59.20
2019-05-07T15:14:34.863Z,59.30
2019-05-07T15:19:29.526Z,58.60
2019-05-07T15:24:24.260Z,58.40
2019-05-07T15:29:18.998Z,59.50
2019-05-07T15:34:13.658Z,59.90
2019-05-07T15:39:08.444Z,60.00
2019-05-07T15:44:03.114Z,60.20
2019-05-07T15:48:57.709Z,61.20
2019-05-07T15:53:54.013Z,60.50
2019-05-07T15:58:48.624Z,61.00
2019-05-07T16:03:44.840Z,60.50
2019-05-07T16:08:42.517Z,60.70
2019-05-07T16:13:48.243Z,61.90
2019-05-07T16:19:01.899Z,61.70
2019-05-07T16:23:56.586Z,61.80
2019-05-07T16:28:52.856Z,62.70
2019-05-07T16:33:47.553Z,63.80
2019-05-07T16:38:42.168Z,64.20
2019-05-07T16:43:36.748Z,64.40
2019-05-07T16:48:32.727Z,64.00
2019-05-07T16:53:30.236Z,64.20
2019-05-07T16:58:25.578Z,65.70
2019-05-07T17:03:22.317Z,66.90
2019-05-07T17:08:16.672Z,65.20
2019-05-07T17:13:12.565Z,66.60
2019-05-07T17:18:07.395Z,67.80
2019-05-07T17:23:02.956Z,68.90
2019-05-07T17:27:57.956Z,69.00
2019-05-07T17:32:52.677Z,69.70
2019-05-07T17:37:47.234Z,70.90
2019-05-07T17:42:41.843Z,71.40
2019-05-07T17:47:36.432Z,70.80
2019-05-07T17:52:32.354Z,71.40
2019-05-07T17:57:27.302Z,74.50
2019-05-07T18:02:24.312Z,74.60
2019-05-07T18:07:19.040Z,74.00
2019-05-07T18:12:13.622Z,70.60
2019-05-07T18:17:09.997Z,70.40
2019-05-07T18:22:04.755Z,70.30
2019-05-07T18:26:59.409Z,72.20
2019-05-07T18:32:01.567Z,73.80
2019-05-07T18:36:56.163Z,73.70
2019-05-07T18:41:52.303Z,74.70
2019-05-07T18:46:47.119Z,75.50
2019-05-07T18:51:42.689Z,76.90
2019-05-07T18:56:37.541Z,79.30
2019-05-07T19:01:33.793Z,82.10
2019-05-07T19:06:28.401Z,84.80
2019-05-07T19:11:23.106Z,86.50
2019-05-07T19:16:17.737Z,88.30
2019-05-07T19:21:12.398Z,88.70
2019-05-07T19:26:07.026Z,89.10
2019-05-07T19:31:01.622Z,90.50
2019-05-07T19:35:56.210Z,91.10
2019-05-07T19:40:52.784Z,91.70
2019-05-07T19:45:47.267Z,92.10
2019-05-07T19:50:42.094Z,93.00
2019-05-07T19:55:54.693Z,93.90
2019-05-07T20:00:49.454Z,94.70
2019-05-07T20:05:44.066Z,95.00
2019-05-07T20:10:42.110Z,95.10
2019-05-07T20:15:38.438Z,95.40
2019-05-07T20:20:33.274Z,95.80
2019-05-07T20:25:27.899Z,95.90
2019-05-07T20:30:22.930Z,96.80
2019-05-07T20:35:18.614Z,97.40
2019-05-07T20:40:13.522Z,99.20
2019-05-07T20:45:08.309Z,99.90
2019-05-07T20:50:02.906Z,99.90
2019-05-07T20:54:59.133Z,99.90
2019-05-07T20:59:56.077Z,99.90
2019-05-07T21:04:51.916Z,99.90
2019-05-07T21:09:46.836Z,99.90
2019-05-07T21:14:41.866Z,99.90
2019-05-07T21:19:36.613Z,99.90
2019-05-07T21:24:33.067Z,99.90
2019-05-07T21:29:27.514Z,99.90
2019-05-07T21:34:23.064Z,99.90
2019-05-07T21:39:17.770Z,99.90
2019-05-07T21:44:12.345Z,99.90
2019-05-07T21:49:07.081Z,99.90
2019-05-07T21:54:09.057Z,99.90
2019-05-07T21:59:07.746Z,99.90
2019-05-07T22:04:02.400Z,99.90
2019-05-07T22:08:57.012Z,99.90
2019-05-07T22:13:52.615Z,99.90
2019-05-07T22:18:47.925Z,99.90
2019-05-07T22:23:42.968Z,99.90
2019-05-07T22:28:38.080Z,99.90
2019-05-07T22:33:34.347Z,99.90
2019-05-07T22:38:28.928Z,99.90
2019-05-07T22:43:23.705Z,99.90
2019-05-07T22:48:18.292Z,99.90
2019-05-07T22:53:12.885Z,99.90
2019-05-07T22:58:26.939Z,99.90
2019-05-07T23:03:22.854Z,99.90
2019-05-07T23:08:17.606Z,99.90
2019-05-07T23:13:12.967Z,99.90
2019-05-07T23:18:07.977Z,99.90
2019-05-07T23:23:02.548Z,99.90
2019-05-07T23:27:57.151Z,99.90
2019-05-07T23:32:52.770Z,99.90
2019-05-07T23:37:47.791Z,99.90
2019-05-07T23:42:44.002Z,99.90
2019-05-07T23:47:38.599Z,99.90
2019-05-07T23:52:33.166Z,99.90
2019-05-07T23:57:27.762Z,99.90
